Terminal Aerodrome Forecast
Issued by NWS

Home | Current Version | Previous Version | Text Only | Print | Product List | Glossary On
Versions: 1 2 3 4 5 6 7 8 9 10 11 12 13 14 15 16 17 18 19 20 21 22 23 24 25 26 27 28 29 30 31 32 33
000
FTUS44 KHGX 271405 AAB
TAFCXO
TAF AMD
KCXO 271405Z 2714/2812 18010KT P6SM SCT025
      TEMPO 2714/2715 5SM BR BKN012 OVC025
     FM271600 20009KT P6SM SCT025 BKN035
     FM272100 20007KT P6SM VCSH BKN035
     FM280200 14003KT P6SM SCT025 BKN250
     FM280800 14003KT 6SM BR MIFG SCT005 SCT015=

USA.gov is the U.S. government's official web portal to all federal, state and local government web resources and services.